CheckWX is a tool to help pilots better visualize weather data.  It is not intended as a substitute for an official pre-flight weather briefing.

10:31:37 UTC

RJFM TAF
Miyazaki Airport
Miyazaki, Japan
TAF RJFM 200507Z 2006/2112 10007KT 9999 FEW030 BECMG 2010/2012 28006KT BECMG 2100/2103 10010KT BECMG 2109/2112 27004KT

Apr-20@
06:00 UTC

Apr-20 @ 06:00 UTC

Apr-20@
10:00 UTC

Apr-20 @ 10:00 UTC

TAF RJFM 200507Z 2006/2112 10007KT 9999 FEW030

Expired

Wind
  • 100° at 7 KTS
Cloud Levels
  • Few at 3,000' AGL

Apr-20@
10:00 UTC

Apr-20 @ 10:00 UTC

Apr-21@
00:00 UTC

Apr-21 @ 00:00 UTC

BECMG 2010/2012 28006KT

Becoming

Becoming Conditions expected by Sat, Apr 20, 2019 @ 12:00 UTC

Wind
  • 280° at 6 KTS
Cloud Levels
  • Few at 3,000' AGL

Apr-21@
00:00 UTC

Apr-21 @ 00:00 UTC

Apr-21@
09:00 UTC

Apr-21 @ 09:00 UTC

BECMG 2100/2103 10010KT

Becoming

Becoming Conditions expected by Sun, Apr 21, 2019 @ 03:00 UTC

Wind
  • 100° at 10 KTS
Cloud Levels
  • Few at 3,000' AGL

Apr-21@
09:00 UTC

Apr-21 @ 09:00 UTC

Apr-21@
12:00 UTC

Apr-21 @ 12:00 UTC

BECMG 2109/2112 27004KT

Becoming

Becoming Conditions expected by Sun, Apr 21, 2019 @ 12:00 UTC

Wind
  • 270° at 4 KTS
Cloud Levels
  • Few at 3,000' AGL